TAF KBBG
KBBG 270520Z 2706/2806 23008KT P6SM SKC FM272100 28008KT P6SM SKC FM280500 32005KT P6SM SKC=
METAR KBBG
WC KBBG
WS KBBG
WV KBBG